sensor_id;sensor_type;location;lat;lon;timestamp;P1;durP1;ratioP1;P2;durP2;ratioP2
33094;SDS011;19459;53.044;8.910;2022-09-01T00:01:38;2.13;;;0.98;;
33094;SDS011;19459;53.044;8.910;2022-09-01T00:04:07;0.77;;;0.75;;
33094;SDS011;19459;53.044;8.910;2022-09-01T00:06:36;1.17;;;0.88;;
33094;SDS011;19459;53.044;8.910;2022-09-01T00:09:05;1.95;;;1.08;;
33094;SDS011;19459;53.044;8.910;2022-09-01T00:11:36;1.50;;;0.98;;
33094;SDS011;19459;53.044;8.910;2022-09-01T00:14:04;1.00;;;0.90;;
33094;SDS011;19459;53.044;8.910;2022-09-01T00:16:32;2.47;;;1.25;;
33094;SDS011;19459;53.044;8.910;2022-09-01T00:18:58;1.20;;;0.98;;
33094;SDS011;19459;53.044;8.910;2022-09-01T00:21:26;1.83;;;0.80;;
33094;SDS011;19459;53.044;8.910;2022-09-01T00:24:01;1.23;;;0.90;;
33094;SDS011;19459;53.044;8.910;2022-09-01T00:26:28;4.43;;;0.70;;
33094;SDS011;19459;53.044;8.910;2022-09-01T00:28:54;4.05;;;1.27;;
33094;SDS011;19459;53.044;8.910;2022-09-01T00:31:20;1.48;;;1.20;;
33094;SDS011;19459;53.044;8.910;2022-09-01T00:33:47;1.48;;;0.90;;
33094;SDS011;19459;53.044;8.910;2022-09-01T00:36:14;1.00;;;0.90;;
33094;SDS011;19459;53.044;8.910;2022-09-01T00:38:41;2.45;;;1.40;;
33094;SDS011;19459;53.044;8.910;2022-09-01T00:41:08;1.77;;;1.02;;
33094;SDS011;19459;53.044;8.910;2022-09-01T00:46:11;2.15;;;1.42;;
33094;SDS011;19459;53.044;8.910;2022-09-01T00:48:43;0.93;;;0.90;;
33094;SDS011;19459;53.044;8.910;2022-09-01T00:51:12;1.55;;;1.33;;
33094;SDS011;19459;53.044;8.910;2022-09-01T00:53:39;2.65;;;0.95;;
33094;SDS011;19459;53.044;8.910;2022-09-01T00:56:08;5.15;;;1.80;;
33094;SDS011;19459;53.044;8.910;2022-09-01T00:58:35;1.50;;;0.90;;
33094;SDS011;19459;53.044;8.910;2022-09-01T01:01:03;0.80;;;0.70;;
33094;SDS011;19459;53.044;8.910;2022-09-01T01:03:32;2.83;;;0.80;;
33094;SDS011;19459;53.044;8.910;2022-09-01T01:06:00;2.42;;;1.00;;
33094;SDS011;19459;53.044;8.910;2022-09-01T01:08:33;1.85;;;1.50;;
33094;SDS011;19459;53.044;8.910;2022-09-01T01:11:03;1.30;;;0.77;;
33094;SDS011;19459;53.044;8.910;2022-09-01T01:13:48;1.77;;;1.05;;
33094;SDS011;19459;53.044;8.910;2022-09-01T01:16:26;2.17;;;0.85;;
33094;SDS011;19459;53.044;8.910;2022-09-01T01:18:53;3.20;;;1.45;;
33094;SDS011;19459;53.044;8.910;2022-09-01T01:21:24;2.50;;;0.90;;
33094;SDS011;19459;53.044;8.910;2022-09-01T01:24:25;4.53;;;1.27;;
33094;SDS011;19459;53.044;8.910;2022-09-01T01:26:56;1.33;;;0.85;;
33094;SDS011;19459;53.044;8.910;2022-09-01T01:29:23;1.92;;;1.02;;
33094;SDS011;19459;53.044;8.910;2022-09-01T01:31:53;1.17;;;0.98;;
33094;SDS011;19459;53.044;8.910;2022-09-01T01:34:20;0.93;;;0.70;;
33094;SDS011;19459;53.044;8.910;2022-09-01T01:36:47;0.95;;;0.65;;
33094;SDS011;19459;53.044;8.910;2022-09-01T01:39:15;1.67;;;0.93;;
33094;SDS011;19459;53.044;8.910;2022-09-01T01:41:46;1.92;;;1.10;;
33094;SDS011;19459;53.044;8.910;2022-09-01T01:44:14;2.50;;;1.02;;
33094;SDS011;19459;53.044;8.910;2022-09-01T01:46:45;1.02;;;0.85;;
33094;SDS011;19459;53.044;8.910;2022-09-01T01:49:15;1.60;;;0.90;;
33094;SDS011;19459;53.044;8.910;2022-09-01T01:51:45;1.70;;;0.88;;
33094;SDS011;19459;53.044;8.910;2022-09-01T01:54:14;1.65;;;1.08;;
33094;SDS011;19459;53.044;8.910;2022-09-01T01:56:43;2.20;;;0.98;;
33094;SDS011;19459;53.044;8.910;2022-09-01T01:59:09;4.03;;;0.93;;
33094;SDS011;19459;53.044;8.910;2022-09-01T02:01:39;1.83;;;0.82;;
33094;SDS011;19459;53.044;8.910;2022-09-01T02:04:08;2.25;;;1.15;;
33094;SDS011;19459;53.044;8.910;2022-09-01T02:06:35;1.60;;;0.90;;
33094;SDS011;19459;53.044;8.910;2022-09-01T02:09:05;5.50;;;1.13;;
33094;SDS011;19459;53.044;8.910;2022-09-01T02:11:33;1.52;;;0.98;;
33094;SDS011;19459;53.044;8.910;2022-09-01T02:14:02;1.60;;;1.00;;
33094;SDS011;19459;53.044;8.910;2022-09-01T02:16:31;1.15;;;0.93;;
33094;SDS011;19459;53.044;8.910;2022-09-01T02:18:58;0.82;;;0.70;;
33094;SDS011;19459;53.044;8.910;2022-09-01T02:21:26;1.08;;;0.95;;
33094;SDS011;19459;53.044;8.910;2022-09-01T02:23:53;2.95;;;1.00;;
33094;SDS011;19459;53.044;8.910;2022-09-01T02:26:37;1.15;;;0.90;;
33094;SDS011;19459;53.044;8.910;2022-09-01T02:29:08;2.05;;;1.00;;
33094;SDS011;19459;53.044;8.910;2022-09-01T02:31:42;1.70;;;1.00;;
33094;SDS011;19459;53.044;8.910;2022-09-01T02:34:10;2.97;;;0.80;;
33094;SDS011;19459;53.044;8.910;2022-09-01T02:36:37;2.00;;;1.00;;
33094;SDS011;19459;53.044;8.910;2022-09-01T02:39:08;0.70;;;0.70;;
33094;SDS011;19459;53.044;8.910;2022-09-01T02:41:35;3.15;;;1.08;;
33094;SDS011;19459;53.044;8.910;2022-09-01T02:44:02;1.65;;;0.90;;
33094;SDS011;19459;53.044;8.910;2022-09-01T02:46:35;2.17;;;1.00;;
33094;SDS011;19459;53.044;8.910;2022-09-01T02:49:17;2.17;;;1.20;;
33094;SDS011;19459;53.044;8.910;2022-09-01T02:51:49;4.15;;;1.17;;
33094;SDS011;19459;53.044;8.910;2022-09-01T02:54:18;1.65;;;1.20;;
33094;SDS011;19459;53.044;8.910;2022-09-01T02:56:47;1.02;;;0.80;;
33094;SDS011;19459;53.044;8.910;2022-09-01T02:59:17;3.00;;;1.35;;
33094;SDS011;19459;53.044;8.910;2022-09-01T03:01:45;0.95;;;0.68;;
33094;SDS011;19459;53.044;8.910;2022-09-01T03:04:13;2.55;;;1.30;;
33094;SDS011;19459;53.044;8.910;2022-09-01T03:06:41;2.47;;;1.23;;
33094;SDS011;19459;53.044;8.910;2022-09-01T03:09:08;1.67;;;1.08;;
33094;SDS011;19459;53.044;8.910;2022-09-01T03:11:39;1.70;;;0.95;;
33094;SDS011;19459;53.044;8.910;2022-09-01T03:14:08;2.35;;;1.38;;
33094;SDS011;19459;53.044;8.910;2022-09-01T03:16:34;1.73;;;1.00;;
33094;SDS011;19459;53.044;8.910;2022-09-01T03:19:01;2.20;;;1.00;;
33094;SDS011;19459;53.044;8.910;2022-09-01T03:21:28;2.58;;;1.10;;
33094;SDS011;19459;53.044;8.910;2022-09-01T03:23:56;2.70;;;1.45;;
33094;SDS011;19459;53.044;8.910;2022-09-01T03:26:22;2.55;;;2.03;;
33094;SDS011;19459;53.044;8.910;2022-09-01T03:28:49;3.30;;;1.30;;
33094;SDS011;19459;53.044;8.910;2022-09-01T03:31:16;3.10;;;1.33;;
33094;SDS011;19459;53.044;8.910;2022-09-01T03:33:44;1.38;;;1.15;;
33094;SDS011;19459;53.044;8.910;2022-09-01T03:36:10;5.45;;;1.42;;
33094;SDS011;19459;53.044;8.910;2022-09-01T03:38:46;2.22;;;1.75;;
33094;SDS011;19459;53.044;8.910;2022-09-01T03:41:15;5.55;;;1.10;;
33094;SDS011;19459;53.044;8.910;2022-09-01T03:43:45;3.30;;;1.58;;
33094;SDS011;19459;53.044;8.910;2022-09-01T03:46:12;2.95;;;1.30;;
33094;SDS011;19459;53.044;8.910;2022-09-01T03:48:58;2.20;;;1.38;;
33094;SDS011;19459;53.044;8.910;2022-09-01T03:51:26;1.65;;;1.45;;
33094;SDS011;19459;53.044;8.910;2022-09-01T03:53:54;3.60;;;1.50;;
33094;SDS011;19459;53.044;8.910;2022-09-01T03:56:22;1.65;;;1.27;;
33094;SDS011;19459;53.044;8.910;2022-09-01T03:58:51;3.58;;;1.38;;
33094;SDS011;19459;53.044;8.910;2022-09-01T04:01:20;3.83;;;1.30;;
33094;SDS011;19459;53.044;8.910;2022-09-01T04:03:46;1.88;;;1.23;;
33094;SDS011;19459;53.044;8.910;2022-09-01T04:06:12;2.63;;;1.40;;
33094;SDS011;19459;53.044;8.910;2022-09-01T04:08:39;1.95;;;1.27;;
33094;SDS011;19459;53.044;8.910;2022-09-01T04:11:26;3.67;;;1.30;;
33094;SDS011;19459;53.044;8.910;2022-09-01T04:13:51;1.83;;;1.60;;
33094;SDS011;19459;53.044;8.910;2022-09-01T04:16:24;4.20;;;1.48;;
33094;SDS011;19459;53.044;8.910;2022-09-01T04:19:15;3.47;;;1.50;;
33094;SDS011;19459;53.044;8.910;2022-09-01T04:21:49;2.17;;;1.38;;
33094;SDS011;19459;53.044;8.910;2022-09-01T04:24:25;2.97;;;1.30;;
33094;SDS011;19459;53.044;8.910;2022-09-01T04:26:57;1.42;;;1.33;;
33094;SDS011;19459;53.044;8.910;2022-09-01T04:29:26;3.05;;;1.70;;
33094;SDS011;19459;53.044;8.910;2022-09-01T04:31:53;3.35;;;1.35;;
33094;SDS011;19459;53.044;8.910;2022-09-01T04:34:21;3.97;;;1.42;;
33094;SDS011;19459;53.044;8.910;2022-09-01T04:36:48;1.55;;;1.40;;
33094;SDS011;19459;53.044;8.910;2022-09-01T04:39:18;2.03;;;1.52;;
33094;SDS011;19459;53.044;8.910;2022-09-01T04:41:44;5.93;;;1.65;;
33094;SDS011;19459;53.044;8.910;2022-09-01T04:44:11;2.28;;;1.40;;
33094;SDS011;19459;53.044;8.910;2022-09-01T04:46:42;4.10;;;1.52;;
33094;SDS011;19459;53.044;8.910;2022-09-01T04:49:14;2.33;;;1.50;;
33094;SDS011;19459;53.044;8.910;2022-09-01T04:51:48;2.08;;;1.73;;
33094;SDS011;19459;53.044;8.910;2022-09-01T04:54:16;2.20;;;1.52;;
33094;SDS011;19459;53.044;8.910;2022-09-01T04:56:43;1.98;;;1.80;;
33094;SDS011;19459;53.044;8.910;2022-09-01T04:59:13;2.67;;;1.70;;
33094;SDS011;19459;53.044;8.910;2022-09-01T05:01:40;6.10;;;2.42;;
33094;SDS011;19459;53.044;8.910;2022-09-01T05:04:10;2.25;;;1.58;;
33094;SDS011;19459;53.044;8.910;2022-09-01T05:06:48;2.33;;;1.48;;
33094;SDS011;19459;53.044;8.910;2022-09-01T05:09:21;2.45;;;2.05;;
33094;SDS011;19459;53.044;8.910;2022-09-01T05:11:49;5.22;;;1.73;;
33094;SDS011;19459;53.044;8.910;2022-09-01T05:14:15;2.20;;;1.70;;
33094;SDS011;19459;53.044;8.910;2022-09-01T05:16:46;3.63;;;1.75;;
33094;SDS011;19459;53.044;8.910;2022-09-01T05:19:14;2.15;;;1.88;;
33094;SDS011;19459;53.044;8.910;2022-09-01T05:21:41;3.42;;;2.10;;
33094;SDS011;19459;53.044;8.910;2022-09-01T05:24:10;3.35;;;1.90;;
33094;SDS011;19459;53.044;8.910;2022-09-01T05:26:39;4.65;;;2.15;;
33094;SDS011;19459;53.044;8.910;2022-09-01T05:29:07;2.00;;;1.80;;
33094;SDS011;19459;53.044;8.910;2022-09-01T05:31:37;3.08;;;1.95;;
33094;SDS011;19459;53.044;8.910;2022-09-01T05:34:05;2.90;;;1.60;;
33094;SDS011;19459;53.044;8.910;2022-09-01T05:36:33;2.85;;;1.67;;
33094;SDS011;19459;53.044;8.910;2022-09-01T05:39:02;1.73;;;1.58;;
33094;SDS011;19459;53.044;8.910;2022-09-01T05:41:29;7.45;;;1.73;;
33094;SDS011;19459;53.044;8.910;2022-09-01T05:43:57;4.18;;;2.10;;
33094;SDS011;19459;53.044;8.910;2022-09-01T05:46:24;3.88;;;2.30;;
33094;SDS011;19459;53.044;8.910;2022-09-01T05:48:52;4.72;;;1.80;;
33094;SDS011;19459;53.044;8.910;2022-09-01T05:51:20;5.20;;;2.58;;
33094;SDS011;19459;53.044;8.910;2022-09-01T05:53:51;3.33;;;1.95;;
33094;SDS011;19459;53.044;8.910;2022-09-01T05:56:23;5.65;;;1.92;;
33094;SDS011;19459;53.044;8.910;2022-09-01T05:58:51;4.25;;;2.00;;
33094;SDS011;19459;53.044;8.910;2022-09-01T06:01:18;3.70;;;2.00;;
33094;SDS011;19459;53.044;8.910;2022-09-01T06:03:48;5.70;;;2.38;;
33094;SDS011;19459;53.044;8.910;2022-09-01T06:06:20;4.18;;;1.70;;
33094;SDS011;19459;53.044;8.910;2022-09-01T06:08:48;8.57;;;2.50;;
33094;SDS011;19459;53.044;8.910;2022-09-01T06:11:15;2.70;;;1.80;;
33094;SDS011;19459;53.044;8.910;2022-09-01T06:13:43;5.95;;;2.33;;
33094;SDS011;19459;53.044;8.910;2022-09-01T06:16:11;4.18;;;1.98;;
33094;SDS011;19459;53.044;8.910;2022-09-01T06:18:41;4.47;;;2.30;;
33094;SDS011;19459;53.044;8.910;2022-09-01T06:21:08;4.45;;;2.42;;
33094;SDS011;19459;53.044;8.910;2022-09-01T06:23:42;3.92;;;1.50;;
33094;SDS011;19459;53.044;8.910;2022-09-01T06:26:15;2.53;;;2.00;;
33094;SDS011;19459;53.044;8.910;2022-09-01T06:28:43;3.08;;;1.90;;
33094;SDS011;19459;53.044;8.910;2022-09-01T06:31:09;2.10;;;1.90;;
33094;SDS011;19459;53.044;8.910;2022-09-01T06:33:36;6.35;;;2.15;;
33094;SDS011;19459;53.044;8.910;2022-09-01T06:36:03;2.83;;;1.67;;
33094;SDS011;19459;53.044;8.910;2022-09-01T06:38:30;11.48;;;2.03;;
33094;SDS011;19459;53.044;8.910;2022-09-01T06:41:00;3.22;;;2.13;;
33094;SDS011;19459;53.044;8.910;2022-09-01T06:43:34;5.88;;;1.80;;
33094;SDS011;19459;53.044;8.910;2022-09-01T06:46:01;1.83;;;1.70;;
33094;SDS011;19459;53.044;8.910;2022-09-01T06:48:27;6.47;;;1.95;;
33094;SDS011;19459;53.044;8.910;2022-09-01T06:50:54;3.78;;;2.00;;
33094;SDS011;19459;53.044;8.910;2022-09-01T06:53:26;2.38;;;1.42;;
33094;SDS011;19459;53.044;8.910;2022-09-01T06:55:55;4.43;;;1.83;;
33094;SDS011;19459;53.044;8.910;2022-09-01T06:58:24;3.38;;;1.73;;
33094;SDS011;19459;53.044;8.910;2022-09-01T07:00:50;3.47;;;1.52;;
33094;SDS011;19459;53.044;8.910;2022-09-01T07:03:17;2.25;;;1.30;;
33094;SDS011;19459;53.044;8.910;2022-09-01T07:05:44;4.72;;;1.48;;
33094;SDS011;19459;53.044;8.910;2022-09-01T07:08:12;1.92;;;1.20;;
33094;SDS011;19459;53.044;8.910;2022-09-01T07:10:44;5.43;;;1.33;;
33094;SDS011;19459;53.044;8.910;2022-09-01T07:13:14;4.75;;;1.45;;
33094;SDS011;19459;53.044;8.910;2022-09-01T07:15:47;3.75;;;1.73;;
33094;SDS011;19459;53.044;8.910;2022-09-01T07:18:22;4.63;;;1.05;;
33094;SDS011;19459;53.044;8.910;2022-09-01T07:20:50;2.00;;;1.45;;
33094;SDS011;19459;53.044;8.910;2022-09-01T07:23:18;1.73;;;1.10;;
33094;SDS011;19459;53.044;8.910;2022-09-01T07:25:46;2.97;;;1.17;;
33094;SDS011;19459;53.044;8.910;2022-09-01T07:28:14;1.80;;;1.05;;
33094;SDS011;19459;53.044;8.910;2022-09-01T07:30:42;1.35;;;1.00;;
33094;SDS011;19459;53.044;8.910;2022-09-01T07:33:15;3.43;;;1.10;;
33094;SDS011;19459;53.044;8.910;2022-09-01T07:35:44;2.38;;;0.77;;
33094;SDS011;19459;53.044;8.910;2022-09-01T07:38:11;5.00;;;1.00;;
33094;SDS011;19459;53.044;8.910;2022-09-01T07:40:38;4.35;;;0.98;;
33094;SDS011;19459;53.044;8.910;2022-09-01T07:43:06;3.35;;;1.13;;
33094;SDS011;19459;53.044;8.910;2022-09-01T07:45:43;1.75;;;1.45;;
33094;SDS011;19459;53.044;8.910;2022-09-01T07:48:13;1.55;;;1.00;;
33094;SDS011;19459;53.044;8.910;2022-09-01T07:50:48;2.05;;;0.80;;
33094;SDS011;19459;53.044;8.910;2022-09-01T07:53:17;2.65;;;0.80;;
33094;SDS011;19459;53.044;8.910;2022-09-01T07:55:51;1.35;;;0.75;;
33094;SDS011;19459;53.044;8.910;2022-09-01T07:58:20;2.47;;;0.93;;
33094;SDS011;19459;53.044;8.910;2022-09-01T08:00:50;1.33;;;0.82;;
33094;SDS011;19459;53.044;8.910;2022-09-01T08:03:18;1.70;;;0.88;;
33094;SDS011;19459;53.044;8.910;2022-09-01T08:05:50;3.20;;;0.90;;
33094;SDS011;19459;53.044;8.910;2022-09-01T08:08:21;0.68;;;0.60;;
33094;SDS011;19459;53.044;8.910;2022-09-01T08:10:48;1.67;;;0.77;;
33094;SDS011;19459;53.044;8.910;2022-09-01T08:13:15;2.55;;;0.65;;
33094;SDS011;19459;53.044;8.910;2022-09-01T08:15:41;2.13;;;0.63;;
33094;SDS011;19459;53.044;8.910;2022-09-01T08:18:08;5.63;;;0.93;;
33094;SDS011;19459;53.044;8.910;2022-09-01T08:20:36;4.88;;;0.80;;
33094;SDS011;19459;53.044;8.910;2022-09-01T08:23:09;0.90;;;0.43;;
33094;SDS011;19459;53.044;8.910;2022-09-01T08:25:37;2.05;;;0.68;;
33094;SDS011;19459;53.044;8.910;2022-09-01T08:28:04;5.72;;;0.63;;
33094;SDS011;19459;53.044;8.910;2022-09-01T08:30:31;0.43;;;0.40;;
33094;SDS011;19459;53.044;8.910;2022-09-01T08:32:58;0.70;;;0.50;;
33094;SDS011;19459;53.044;8.910;2022-09-01T08:35:25;3.05;;;0.50;;
33094;SDS011;19459;53.044;8.910;2022-09-01T08:37:53;1.92;;;1.45;;
33094;SDS011;19459;53.044;8.910;2022-09-01T08:40:20;3.30;;;0.98;;
33094;SDS011;19459;53.044;8.910;2022-09-01T08:51:14;2.97;;;1.02;;
33094;SDS011;19459;53.044;8.910;2022-09-01T08:53:53;0.68;;;0.40;;
33094;SDS011;19459;53.044;8.910;2022-09-01T08:56:28;2.67;;;1.20;;
33094;SDS011;19459;53.044;8.910;2022-09-01T08:58:54;1.52;;;0.70;;
33094;SDS011;19459;53.044;8.910;2022-09-01T09:01:27;3.40;;;0.63;;
33094;SDS011;19459;53.044;8.910;2022-09-01T09:07:13;1.23;;;0.40;;
33094;SDS011;19459;53.044;8.910;2022-09-01T09:10:25;4.63;;;0.70;;
33094;SDS011;19459;53.044;8.910;2022-09-01T09:13:19;5.00;;;0.80;;
33094;SDS011;19459;53.044;8.910;2022-09-01T09:16:17;1.00;;;0.80;;
33094;SDS011;19459;53.044;8.910;2022-09-01T09:18:42;4.97;;;0.80;;
33094;SDS011;19459;53.044;8.910;2022-09-01T09:21:52;1.42;;;0.57;;
33094;SDS011;19459;53.044;8.910;2022-09-01T09:24:09;1.50;;;0.82;;
33094;SDS011;19459;53.044;8.910;2022-09-01T09:27:11;2.25;;;0.75;;
33094;SDS011;19459;53.044;8.910;2022-09-01T09:29:58;2.47;;;0.55;;
33094;SDS011;19459;53.044;8.910;2022-09-01T09:32:48;4.03;;;0.68;;
33094;SDS011;19459;53.044;8.910;2022-09-01T09:43:36;1.90;;;0.70;;
33094;SDS011;19459;53.044;8.910;2022-09-01T09:46:27;2.15;;;0.88;;
33094;SDS011;19459;53.044;8.910;2022-09-01T09:51:57;7.97;;;0.70;;
33094;SDS011;19459;53.044;8.910;2022-09-01T09:54:41;0.73;;;0.63;;
33094;SDS011;19459;53.044;8.910;2022-09-01T09:57:31;3.08;;;0.95;;
33094;SDS011;19459;53.044;8.910;2022-09-01T10:00:06;2.42;;;0.60;;
33094;SDS011;19459;53.044;8.910;2022-09-01T10:03:08;1.45;;;0.57;;
33094;SDS011;19459;53.044;8.910;2022-09-01T10:11:01;2.00;;;0.80;;
33094;SDS011;19459;53.044;8.910;2022-09-01T10:13:29;1.48;;;0.60;;
33094;SDS011;19459;53.044;8.910;2022-09-01T10:16:13;3.10;;;0.77;;
33094;SDS011;19459;53.044;8.910;2022-09-01T10:18:48;3.10;;;0.60;;
33094;SDS011;19459;53.044;8.910;2022-09-01T10:21:27;0.47;;;0.47;;
33094;SDS011;19459;53.044;8.910;2022-09-01T10:23:59;4.35;;;0.50;;
33094;SDS011;19459;53.044;8.910;2022-09-01T10:26:31;2.33;;;0.60;;
33094;SDS011;19459;53.044;8.910;2022-09-01T10:29:05;0.63;;;0.50;;
33094;SDS011;19459;53.044;8.910;2022-09-01T10:31:41;2.88;;;0.63;;
33094;SDS011;19459;53.044;8.910;2022-09-01T10:34:09;2.90;;;0.60;;
33094;SDS011;19459;53.044;8.910;2022-09-01T10:36:40;1.95;;;0.77;;
33094;SDS011;19459;53.044;8.910;2022-09-01T10:39:10;4.93;;;0.85;;
33094;SDS011;19459;53.044;8.910;2022-09-01T10:46:57;2.63;;;0.50;;
33094;SDS011;19459;53.044;8.910;2022-09-01T10:51:56;3.22;;;0.60;;
33094;SDS011;19459;53.044;8.910;2022-09-01T10:57:49;0.70;;;0.50;;
33094;SDS011;19459;53.044;8.910;2022-09-01T10:59:53;0.90;;;0.38;;
33094;SDS011;19459;53.044;8.910;2022-09-01T11:02:21;1.25;;;0.88;;
33094;SDS011;19459;53.044;8.910;2022-09-01T11:13:31;0.88;;;0.70;;
33094;SDS011;19459;53.044;8.910;2022-09-01T11:19:14;2.97;;;0.50;;
33094;SDS011;19459;53.044;8.910;2022-09-01T11:30:45;0.82;;;0.60;;
33094;SDS011;19459;53.044;8.910;2022-09-01T11:47:32;2.10;;;0.55;;
33094;SDS011;19459;53.044;8.910;2022-09-01T11:52:42;1.58;;;0.90;;
33094;SDS011;19459;53.044;8.910;2022-09-01T11:55:40;2.17;;;0.55;;
33094;SDS011;19459;53.044;8.910;2022-09-01T11:58:13;1.48;;;0.70;;
33094;SDS011;19459;53.044;8.910;2022-09-01T12:00:53;1.30;;;1.02;;
33094;SDS011;19459;53.044;8.910;2022-09-01T12:03:24;1.08;;;0.70;;
33094;SDS011;19459;53.044;8.910;2022-09-01T12:05:54;1.67;;;0.90;;
33094;SDS011;19459;53.044;8.910;2022-09-01T12:08:25;1.83;;;0.80;;
33094;SDS011;19459;53.044;8.910;2022-09-01T12:11:05;3.05;;;1.17;;
33094;SDS011;19459;53.044;8.910;2022-09-01T12:13:38;2.13;;;0.90;;
33094;SDS011;19459;53.044;8.910;2022-09-01T12:16:07;1.05;;;0.77;;
33094;SDS011;19459;53.044;8.910;2022-09-01T12:18:36;0.95;;;0.82;;
33094;SDS011;19459;53.044;8.910;2022-09-01T12:21:16;2.42;;;0.80;;
33094;SDS011;19459;53.044;8.910;2022-09-01T12:23:52;4.63;;;3.00;;
33094;SDS011;19459;53.044;8.910;2022-09-01T12:26:24;3.83;;;1.23;;
33094;SDS011;19459;53.044;8.910;2022-09-01T12:28:53;1.25;;;0.98;;
33094;SDS011;19459;53.044;8.910;2022-09-01T12:31:21;8.48;;;2.85;;
33094;SDS011;19459;53.044;8.910;2022-09-01T12:33:49;2.80;;;2.35;;
33094;SDS011;19459;53.044;8.910;2022-09-01T12:36:27;0.60;;;0.60;;
33094;SDS011;19459;53.044;8.910;2022-09-01T12:38:59;1.58;;;0.50;;
33094;SDS011;19459;53.044;8.910;2022-09-01T12:41:42;4.28;;;0.80;;
33094;SDS011;19459;53.044;8.910;2022-09-01T12:44:44;1.80;;;0.57;;
33094;SDS011;19459;53.044;8.910;2022-09-01T12:50:01;0.68;;;0.60;;
33094;SDS011;19459;53.044;8.910;2022-09-01T12:52:30;1.00;;;0.60;;
33094;SDS011;19459;53.044;8.910;2022-09-01T13:05:31;0.82;;;0.82;;
33094;SDS011;19459;53.044;8.910;2022-09-01T13:08:06;1.08;;;0.60;;
33094;SDS011;19459;53.044;8.910;2022-09-01T13:10:38;0.65;;;0.60;;
33094;SDS011;19459;53.044;8.910;2022-09-01T13:13:09;1.23;;;0.63;;
33094;SDS011;19459;53.044;8.910;2022-09-01T13:15:37;2.20;;;0.82;;
33094;SDS011;19459;53.044;8.910;2022-09-01T13:18:12;3.00;;;0.98;;
33094;SDS011;19459;53.044;8.910;2022-09-01T13:20:43;2.28;;;1.10;;
33094;SDS011;19459;53.044;8.910;2022-09-01T13:23:09;1.83;;;0.80;;
33094;SDS011;19459;53.044;8.910;2022-09-01T13:25:36;0.77;;;0.60;;
33094;SDS011;19459;53.044;8.910;2022-09-01T13:28:04;1.40;;;0.70;;
33094;SDS011;19459;53.044;8.910;2022-09-01T13:30:31;7.65;;;0.75;;
33094;SDS011;19459;53.044;8.910;2022-09-01T13:32:58;0.80;;;0.60;;
33094;SDS011;19459;53.044;8.910;2022-09-01T13:35:24;1.58;;;0.57;;
33094;SDS011;19459;53.044;8.910;2022-09-01T13:37:51;1.05;;;0.50;;
33094;SDS011;19459;53.044;8.910;2022-09-01T13:40:17;3.95;;;1.00;;
33094;SDS011;19459;53.044;8.910;2022-09-01T13:42:45;2.63;;;0.60;;
33094;SDS011;19459;53.044;8.910;2022-09-01T13:45:17;2.15;;;0.68;;
33094;SDS011;19459;53.044;8.910;2022-09-01T13:47:48;1.38;;;0.80;;
33094;SDS011;19459;53.044;8.910;2022-09-01T13:50:15;2.58;;;0.55;;
33094;SDS011;19459;53.044;8.910;2022-09-01T13:52:45;0.73;;;0.45;;
33094;SDS011;19459;53.044;8.910;2022-09-01T13:55:16;1.33;;;0.60;;
33094;SDS011;19459;53.044;8.910;2022-09-01T13:57:54;3.60;;;0.82;;
33094;SDS011;19459;53.044;8.910;2022-09-01T14:00:22;1.10;;;0.50;;
33094;SDS011;19459;53.044;8.910;2022-09-01T14:02:53;1.77;;;0.75;;
33094;SDS011;19459;53.044;8.910;2022-09-01T14:05:25;1.13;;;0.60;;
33094;SDS011;19459;53.044;8.910;2022-09-01T14:07:54;0.73;;;0.38;;
33094;SDS011;19459;53.044;8.910;2022-09-01T14:10:21;1.83;;;0.80;;
33094;SDS011;19459;53.044;8.910;2022-09-01T14:12:49;1.10;;;0.50;;
33094;SDS011;19459;53.044;8.910;2022-09-01T14:15:15;1.23;;;0.60;;
33094;SDS011;19459;53.044;8.910;2022-09-01T14:17:43;1.88;;;0.65;;
33094;SDS011;19459;53.044;8.910;2022-09-01T14:20:16;3.28;;;0.50;;
33094;SDS011;19459;53.044;8.910;2022-09-01T14:22:49;1.05;;;0.47;;
33094;SDS011;19459;53.044;8.910;2022-09-01T14:25:15;0.63;;;0.47;;
33094;SDS011;19459;53.044;8.910;2022-09-01T14:27:43;1.67;;;0.50;;
33094;SDS011;19459;53.044;8.910;2022-09-01T14:30:11;1.20;;;0.60;;
33094;SDS011;19459;53.044;8.910;2022-09-01T14:32:42;1.25;;;0.38;;
33094;SDS011;19459;53.044;8.910;2022-09-01T14:35:08;1.63;;;0.70;;
33094;SDS011;19459;53.044;8.910;2022-09-01T14:37:35;4.40;;;0.60;;
33094;SDS011;19459;53.044;8.910;2022-09-01T14:40:02;1.08;;;0.60;;
33094;SDS011;19459;53.044;8.910;2022-09-01T14:42:32;0.70;;;0.60;;
33094;SDS011;19459;53.044;8.910;2022-09-01T14:44:58;2.95;;;0.82;;
33094;SDS011;19459;53.044;8.910;2022-09-01T14:47:25;2.92;;;0.80;;
33094;SDS011;19459;53.044;8.910;2022-09-01T14:49:51;3.00;;;0.60;;
33094;SDS011;19459;53.044;8.910;2022-09-01T14:52:17;0.77;;;0.40;;
33094;SDS011;19459;53.044;8.910;2022-09-01T14:54:45;1.40;;;0.82;;
33094;SDS011;19459;53.044;8.910;2022-09-01T14:57:11;0.85;;;0.85;;
33094;SDS011;19459;53.044;8.910;2022-09-01T14:59:38;1.08;;;0.57;;
33094;SDS011;19459;53.044;8.910;2022-09-01T15:02:05;1.02;;;0.80;;
33094;SDS011;19459;53.044;8.910;2022-09-01T15:04:33;0.95;;;0.40;;
33094;SDS011;19459;53.044;8.910;2022-09-01T15:07:12;1.60;;;0.57;;
33094;SDS011;19459;53.044;8.910;2022-09-01T15:09:39;2.40;;;0.68;;
33094;SDS011;19459;53.044;8.910;2022-09-01T15:12:06;1.60;;;0.85;;
33094;SDS011;19459;53.044;8.910;2022-09-01T15:14:33;0.90;;;0.50;;
33094;SDS011;19459;53.044;8.910;2022-09-01T15:17:00;0.50;;;0.50;;
33094;SDS011;19459;53.044;8.910;2022-09-01T15:19:26;3.72;;;0.50;;
33094;SDS011;19459;53.044;8.910;2022-09-01T15:21:52;1.70;;;0.70;;
33094;SDS011;19459;53.044;8.910;2022-09-01T15:24:18;0.50;;;0.50;;
33094;SDS011;19459;53.044;8.910;2022-09-01T15:26:44;1.45;;;0.73;;
33094;SDS011;19459;53.044;8.910;2022-09-01T15:29:11;1.33;;;0.63;;
33094;SDS011;19459;53.044;8.910;2022-09-01T15:31:39;0.80;;;0.50;;
33094;SDS011;19459;53.044;8.910;2022-09-01T15:34:06;0.60;;;0.60;;
33094;SDS011;19459;53.044;8.910;2022-09-01T15:36:33;0.85;;;0.45;;
33094;SDS011;19459;53.044;8.910;2022-09-01T15:39:04;3.72;;;1.10;;
33094;SDS011;19459;53.044;8.910;2022-09-01T15:41:32;1.35;;;0.60;;
33094;SDS011;19459;53.044;8.910;2022-09-01T15:43:59;0.60;;;0.43;;
33094;SDS011;19459;53.044;8.910;2022-09-01T15:46:30;2.50;;;0.73;;
33094;SDS011;19459;53.044;8.910;2022-09-01T15:49:02;4.82;;;0.88;;
33094;SDS011;19459;53.044;8.910;2022-09-01T15:53:57;2.92;;;0.65;;
33094;SDS011;19459;53.044;8.910;2022-09-01T15:56:35;0.70;;;0.50;;
33094;SDS011;19459;53.044;8.910;2022-09-01T15:59:01;3.53;;;0.70;;
33094;SDS011;19459;53.044;8.910;2022-09-01T16:01:31;0.70;;;0.70;;
33094;SDS011;19459;53.044;8.910;2022-09-01T16:04:00;1.05;;;0.55;;
33094;SDS011;19459;53.044;8.910;2022-09-01T16:06:28;1.58;;;0.70;;
33094;SDS011;19459;53.044;8.910;2022-09-01T16:08:54;0.77;;;0.73;;
33094;SDS011;19459;53.044;8.910;2022-09-01T16:11:20;2.88;;;0.70;;
33094;SDS011;19459;53.044;8.910;2022-09-01T16:13:48;1.08;;;0.68;;
33094;SDS011;19459;53.044;8.910;2022-09-01T16:19:00;1.35;;;0.52;;
33094;SDS011;19459;53.044;8.910;2022-09-01T16:24:37;0.80;;;0.60;;
33094;SDS011;19459;53.044;8.910;2022-09-01T16:27:15;1.13;;;0.80;;
33094;SDS011;19459;53.044;8.910;2022-09-01T16:32:20;2.47;;;0.85;;
33094;SDS011;19459;53.044;8.910;2022-09-01T16:34:48;1.33;;;0.60;;
33094;SDS011;19459;53.044;8.910;2022-09-01T16:42:55;0.80;;;0.60;;
33094;SDS011;19459;53.044;8.910;2022-09-01T16:45:32;0.90;;;0.60;;
33094;SDS011;19459;53.044;8.910;2022-09-01T16:48:26;0.60;;;0.60;;
33094;SDS011;19459;53.044;8.910;2022-09-01T16:53:54;1.08;;;0.80;;
33094;SDS011;19459;53.044;8.910;2022-09-01T16:56:59;0.82;;;0.73;;
33094;SDS011;19459;53.044;8.910;2022-09-01T16:59:55;0.93;;;0.70;;
33094;SDS011;19459;53.044;8.910;2022-09-01T17:05:44;0.57;;;0.50;;